Novomar — 5BCT2 — position and weather

sailwx.info

Track history (hours):
 
Tides and Currents Weather Stations Pressure Air Temp Water Temp Dewpoint Dewpoint Depression Visibility Wind Speed Wind Dir Waves Ship Positions

Novomar

Last reported at 2017-Jan-17 08:33 UTC. Time now 2017-Jan-17 17:18 UTC.
Position N 54°35' E 010°41'.

Length 89 m; draft 4.8 m.

Type: Ship. MMSI: 210974000.

Date/timePositionNaut miles runAvg speedWind from/ knotsBaromVisibWave heightAir tempDewpointWater temp
2017-Jan-17 08:33N 54°35' E 010°41'1010.0
2017-Jan-17 07:33N 54°36' E 010°58'1010.5
2017-Jan-17 06:33N 54°34' E 011°16'1111.4
2017-Jan-17 05:33N 54°30' E 011°34'1110.8
2017-Jan-17 04:33N 54°26' E 011°51'1010.5
2017-Jan-17 03:33N 54°28' E 012°09'1010.1
2017-Jan-17 02:33N 54°37' E 012°15'1010.4
2017-Jan-17 01:33N 54°43' E 012°30'5210.2
2017-Jan-16 20:26N 55°02' E 013°54'910.1
2017-Jan-16 19:32N 55°07' E 014°07'1010.2
2017-Jan-16 18:32N 55°15' E 014°19'1010.6
2017-Jan-16 17:34N 55°23' E 014°30'1010.4
2017-Jan-16 16:34N 55°29' E 014°44'1110.6
2017-Jan-16 15:32N 55°35' E 015°01'288 9.9
2017-Jan-15 10:24N 59°39' E 019°44'910.4
2017-Jan-15 09:33N 59°46' E 019°34'1010.3
2017-Jan-15 08:33N 59°55' E 019°23'1010.2
2017-Jan-15 07:33N 60°03' E 019°11'  
Track history (hours):
 
Tides and Currents Weather Stations Pressure Air Temp Water Temp Dewpoint Dewpoint Depression Visibility Wind Speed Wind Dir Waves Ship Positions

Novomar

Last reported at 2017-Jan-17 08:33 UTC. Time now 2017-Jan-17 17:18 UTC.
Position N 54°35' E 010°41'.

Length 89 m; draft 4.8 m.

Type: Ship. MMSI: 210974000.

Date/timePositionNaut miles runAvg speedWind from/ knotsBaromVisibWave heightAir tempDewpointWater temp
2017-Jan-17 08:33N 54°35' E 010°41'1010.0
2017-Jan-17 07:33N 54°36' E 010°58'1010.5
2017-Jan-17 06:33N 54°34' E 011°16'1111.4
2017-Jan-17 05:33N 54°30' E 011°34'1110.8
2017-Jan-17 04:33N 54°26' E 011°51'1010.5
2017-Jan-17 03:33N 54°28' E 012°09'1010.1
2017-Jan-17 02:33N 54°37' E 012°15'1010.4
2017-Jan-17 01:33N 54°43' E 012°30'5210.2
2017-Jan-16 20:26N 55°02' E 013°54'910.1
2017-Jan-16 19:32N 55°07' E 014°07'1010.2
2017-Jan-16 18:32N 55°15' E 014°19'1010.6
2017-Jan-16 17:34N 55°23' E 014°30'1010.4
2017-Jan-16 16:34N 55°29' E 014°44'1110.6
2017-Jan-16 15:32N 55°35' E 015°01'288 9.9
2017-Jan-15 10:24N 59°39' E 019°44'910.4
2017-Jan-15 09:33N 59°46' E 019°34'1010.3
2017-Jan-15 08:33N 59°55' E 019°23'1010.2
2017-Jan-15 07:33N 60°03' E 019°11'  

Dump ship's entire track history